createdAt,value
2023-03-29T00:00:23.000Z,7.50
2023-03-29T00:01:35.849Z,11.40
2023-03-29T00:02:24.143Z,10.70
2023-03-29T00:03:23.062Z,9.30
2023-03-29T00:04:22.993Z,8.10
2023-03-29T00:05:23.096Z,10.40
2023-03-29T00:06:22.914Z,9.70
2023-03-29T00:07:22.943Z,7.80
2023-03-29T00:08:22.921Z,8.10
2023-03-29T00:09:22.929Z,9.10
2023-03-29T00:10:22.947Z,8.90
2023-03-29T00:11:22.899Z,12.00
2023-03-29T00:12:22.872Z,12.70
2023-03-29T00:13:22.960Z,10.80
2023-03-29T00:14:22.903Z,7.90
2023-03-29T00:15:22.887Z,10.80
2023-03-29T00:16:22.935Z,11.00
2023-03-29T00:17:22.885Z,8.80
2023-03-29T00:18:22.887Z,8.40
2023-03-29T00:19:23.846Z,8.50
2023-03-29T00:20:22.831Z,10.90
2023-03-29T00:21:22.828Z,11.60
2023-03-29T00:22:22.828Z,7.60
2023-03-29T00:23:22.819Z,11.10
2023-03-29T00:24:22.817Z,10.20
2023-03-29T00:25:22.829Z,9.80
2023-03-29T00:26:22.949Z,7.90
2023-03-29T00:27:22.820Z,10.60
2023-03-29T00:28:22.873Z,10.00
2023-03-29T00:29:22.828Z,11.50
2023-03-29T00:30:22.796Z,9.80
2023-03-29T00:31:22.852Z,10.60
2023-03-29T00:32:22.891Z,11.90
2023-03-29T00:33:22.790Z,11.40
2023-03-29T00:34:22.810Z,10.20
2023-03-29T00:35:22.760Z,11.60
2023-03-29T00:36:22.752Z,11.40
2023-03-29T00:37:22.772Z,12.60
2023-03-29T00:38:22.823Z,11.60
2023-03-29T00:39:22.727Z,9.30
2023-03-29T00:40:22.729Z,10.80
2023-03-29T00:41:22.748Z,9.20
2023-03-29T00:42:22.715Z,11.50
2023-03-29T00:43:22.733Z,10.70
2023-03-29T00:44:22.717Z,11.10
2023-03-29T00:45:22.724Z,12.50
2023-03-29T00:46:22.827Z,9.70
2023-03-29T00:47:22.828Z,11.00
2023-03-29T00:48:22.676Z,12.00
2023-03-29T00:49:22.661Z,11.00
2023-03-29T00:50:22.744Z,10.90
2023-03-29T00:51:22.628Z,11.40
2023-03-29T00:52:22.666Z,12.80
2023-03-29T00:53:22.714Z,12.90
2023-03-29T00:54:22.657Z,11.60
2023-03-29T00:55:22.643Z,14.30
2023-03-29T00:56:22.659Z,12.40
2023-03-29T00:57:22.786Z,13.00
2023-03-29T00:58:23.689Z,11.90
2023-03-29T00:59:22.623Z,13.30
2023-03-29T01:00:22.687Z,12.20
2023-03-29T01:01:22.717Z,11.00
2023-03-29T01:02:22.656Z,12.60
2023-03-29T01:03:22.811Z,15.20
2023-03-29T01:04:22.582Z,14.10
2023-03-29T01:05:22.578Z,14.10
2023-03-29T01:06:23.582Z,12.00
2023-03-29T01:07:22.621Z,12.70
2023-03-29T01:08:22.579Z,13.30
2023-03-29T01:09:22.566Z,13.00
2023-03-29T01:10:22.576Z,12.90
2023-03-29T01:11:22.547Z,13.40
2023-03-29T01:12:22.549Z,12.20
2023-03-29T01:13:22.557Z,11.50
2023-03-29T01:14:22.516Z,11.70
2023-03-29T01:15:22.538Z,14.50
2023-03-29T01:16:23.521Z,12.40
2023-03-29T01:17:22.478Z,11.10
2023-03-29T01:18:22.510Z,12.90
2023-03-29T01:19:22.534Z,11.80
2023-03-29T01:20:22.513Z,11.80
2023-03-29T01:21:22.467Z,11.70
2023-03-29T01:22:22.506Z,12.30
2023-03-29T01:23:22.462Z,11.90
2023-03-29T01:24:22.438Z,13.50
2023-03-29T01:25:22.486Z,12.90
2023-03-29T01:26:22.440Z,11.60
2023-03-29T01:27:22.434Z,12.40
2023-03-29T01:28:22.475Z,12.70
2023-03-29T01:29:23.473Z,12.80
2023-03-29T01:30:22.423Z,12.70
2023-03-29T01:31:22.476Z,13.90
2023-03-29T01:32:22.447Z,14.50
2023-03-29T01:33:22.386Z,12.30
2023-03-29T01:34:22.392Z,11.80
2023-03-29T01:35:22.382Z,13.20
2023-03-29T01:36:22.440Z,14.00
2023-03-29T01:37:22.413Z,12.40
2023-03-29T01:38:22.396Z,13.70
2023-03-29T01:39:23.358Z,14.20
2023-03-29T01:40:22.360Z,12.00
2023-03-29T01:41:22.405Z,13.30
2023-03-29T01:42:22.829Z,12.30
2023-03-29T01:43:22.343Z,11.80
2023-03-29T01:44:22.341Z,13.20
2023-03-29T01:45:22.350Z,12.50
2023-03-29T01:46:22.339Z,13.90
2023-03-29T01:47:22.342Z,11.60
2023-03-29T01:48:22.279Z,12.80
2023-03-29T01:49:22.310Z,12.50
2023-03-29T01:50:22.287Z,12.80
2023-03-29T01:51:22.325Z,11.80
2023-03-29T01:52:22.272Z,15.70
2023-03-29T01:53:22.289Z,13.10
2023-03-29T01:54:22.303Z,12.00
2023-03-29T01:55:22.311Z,13.70
2023-03-29T01:56:22.235Z,12.00
2023-03-29T01:57:22.397Z,13.00
2023-03-29T01:58:22.265Z,12.60
2023-03-29T01:59:22.238Z,15.00
2023-03-29T02:00:22.254Z,13.40
2023-03-29T02:01:22.246Z,12.70
2023-03-29T02:02:22.317Z,13.80
2023-03-29T02:03:22.301Z,13.30
2023-03-29T02:04:22.285Z,11.90
2023-03-29T02:05:22.185Z,11.90
2023-03-29T02:06:22.194Z,11.60
2023-03-29T02:07:22.216Z,12.20
2023-03-29T02:08:22.181Z,13.40
2023-03-29T02:09:22.211Z,11.20
2023-03-29T02:10:22.148Z,13.50
2023-03-29T02:11:22.153Z,16.80
2023-03-29T02:12:22.179Z,13.80
2023-03-29T02:13:22.136Z,11.50
2023-03-29T02:14:22.197Z,11.90
2023-03-29T02:15:22.138Z,13.00
2023-03-29T02:16:22.313Z,15.30
2023-03-29T02:17:22.116Z,13.90
2023-03-29T02:18:22.096Z,14.40
2023-03-29T02:19:22.171Z,12.30
2023-03-29T02:20:22.097Z,13.50
2023-03-29T02:21:22.126Z,13.30
2023-03-29T02:22:22.121Z,12.40
2023-03-29T02:23:22.091Z,13.90
2023-03-29T02:24:22.133Z,13.40
2023-03-29T02:25:22.081Z,12.80
2023-03-29T02:26:22.072Z,11.80
2023-03-29T02:27:22.082Z,11.30
2023-03-29T02:28:22.035Z,11.40
2023-03-29T02:29:22.046Z,12.80
2023-03-29T02:30:22.033Z,12.20
2023-03-29T02:31:22.151Z,14.00
2023-03-29T02:32:22.049Z,12.70
2023-03-29T02:33:22.012Z,11.30
2023-03-29T02:34:22.002Z,11.70
2023-03-29T02:35:22.018Z,14.20
2023-03-29T02:36:22.089Z,13.40
2023-03-29T02:37:22.003Z,11.10
2023-03-29T02:38:22.017Z,13.00
2023-03-29T02:39:21.978Z,11.50
2023-03-29T02:40:21.983Z,12.50
2023-03-29T02:41:22.021Z,13.40
2023-03-29T02:42:21.994Z,12.80
2023-03-29T02:43:24.524Z,11.20
2023-03-29T02:44:21.956Z,11.90
2023-03-29T02:45:21.979Z,15.00
2023-03-29T02:46:22.021Z,10.30
2023-03-29T02:47:22.838Z,11.90
2023-03-29T02:48:21.940Z,10.60
2023-03-29T02:49:21.909Z,12.90
2023-03-29T02:50:21.938Z,12.20
2023-03-29T02:51:21.907Z,11.00
2023-03-29T02:52:21.914Z,11.30
2023-03-29T02:53:21.905Z,12.30
2023-03-29T02:54:21.885Z,11.70
2023-03-29T02:55:21.916Z,13.20
2023-03-29T02:56:21.914Z,11.90
2023-03-29T02:57:22.892Z,11.90
2023-03-29T02:58:21.865Z,11.70
2023-03-29T02:59:21.853Z,12.20
2023-03-29T03:00:21.835Z,11.80
2023-03-29T03:01:21.859Z,10.60
2023-03-29T03:02:21.932Z,11.50
2023-03-29T03:03:21.931Z,12.80
2023-03-29T03:04:21.805Z,13.50
2023-03-29T03:05:21.817Z,12.20
2023-03-29T03:06:21.810Z,10.00
2023-03-29T03:07:21.830Z,13.90
2023-03-29T03:08:21.804Z,12.10
2023-03-29T03:09:21.812Z,11.50
2023-03-29T03:10:21.801Z,12.10
2023-03-29T03:11:21.778Z,11.20
2023-03-29T03:12:21.750Z,10.90
2023-03-29T03:13:21.812Z,11.50
2023-03-29T03:14:21.768Z,11.10
2023-03-29T03:15:21.842Z,11.60
2023-03-29T03:16:21.822Z,11.80
2023-03-29T03:17:21.838Z,11.10
2023-03-29T03:18:21.725Z,13.70
2023-03-29T03:19:21.733Z,13.60
2023-03-29T03:20:21.711Z,13.20
2023-03-29T03:21:21.723Z,12.60
2023-03-29T03:22:21.728Z,12.40
2023-03-29T03:23:21.730Z,11.40
2023-03-29T03:24:21.695Z,12.50
2023-03-29T03:25:21.684Z,12.20
2023-03-29T03:26:21.701Z,12.10
2023-03-29T03:27:21.685Z,13.40
2023-03-29T03:28:21.695Z,10.90
2023-03-29T03:29:21.715Z,11.00
2023-03-29T03:30:21.680Z,11.60
2023-03-29T03:31:21.700Z,13.20
2023-03-29T03:32:21.701Z,11.40
2023-03-29T03:33:21.650Z,12.60
2023-03-29T03:34:21.649Z,10.40
2023-03-29T03:35:21.629Z,11.30
2023-03-29T03:36:21.612Z,11.80
2023-03-29T03:37:21.630Z,12.20
2023-03-29T03:38:21.644Z,10.80
2023-03-29T03:39:21.580Z,10.10
2023-03-29T03:40:21.813Z,12.90
2023-03-29T03:41:21.584Z,13.40
2023-03-29T03:42:21.567Z,11.80
2023-03-29T03:43:21.590Z,12.10
2023-03-29T03:44:21.572Z,12.00
2023-03-29T03:45:21.629Z,12.90
2023-03-29T03:46:21.637Z,13.30
2023-03-29T03:47:21.539Z,12.20
2023-03-29T03:48:22.530Z,13.90
2023-03-29T03:49:21.562Z,11.00
2023-03-29T03:50:21.521Z,10.70
2023-03-29T03:51:21.584Z,11.90
2023-03-29T03:52:21.498Z,12.00
2023-03-29T03:53:21.592Z,12.10
2023-03-29T03:54:21.504Z,13.80
2023-03-29T03:55:21.503Z,19.00
2023-03-29T03:56:21.508Z,14.80
2023-03-29T03:57:21.509Z,13.10
2023-03-29T03:58:21.510Z,12.80
2023-03-29T03:59:21.438Z,11.80
2023-03-29T04:00:21.532Z,11.60
2023-03-29T04:01:21.495Z,13.60
2023-03-29T04:02:21.466Z,12.20
2023-03-29T04:03:22.752Z,11.60
2023-03-29T04:04:21.520Z,12.00
2023-03-29T04:05:21.434Z,10.80
2023-03-29T04:06:21.480Z,11.00
2023-03-29T04:07:21.421Z,11.00
2023-03-29T04:08:21.458Z,11.10
2023-03-29T04:09:21.381Z,12.10
2023-03-29T04:10:21.384Z,10.60
2023-03-29T04:11:21.385Z,11.00
2023-03-29T04:12:21.494Z,11.30
2023-03-29T04:13:21.365Z,10.30
2023-03-29T04:14:21.388Z,12.40
2023-03-29T04:15:21.346Z,11.30
2023-03-29T04:16:21.506Z,13.00
2023-03-29T04:17:21.376Z,16.00
2023-03-29T04:18:21.445Z,13.70
2023-03-29T04:19:21.813Z,11.30
2023-03-29T04:20:21.333Z,12.00
2023-03-29T04:21:21.498Z,11.60
2023-03-29T04:22:22.314Z,13.70
2023-03-29T04:23:21.345Z,13.30
2023-03-29T04:24:21.304Z,13.20
2023-03-29T04:25:21.394Z,12.70
2023-03-29T04:26:21.303Z,11.90
2023-03-29T04:27:21.288Z,12.20
2023-03-29T04:28:21.332Z,13.00
2023-03-29T04:29:21.299Z,13.00
2023-03-29T04:30:21.277Z,13.90
2023-03-29T04:31:21.279Z,12.40
2023-03-29T04:32:21.331Z,15.20
2023-03-29T04:33:21.267Z,16.90
2023-03-29T04:34:21.278Z,12.60
2023-03-29T04:35:21.234Z,12.00
2023-03-29T04:36:21.245Z,13.30
2023-03-29T04:37:21.221Z,12.80
2023-03-29T04:38:21.235Z,16.70
2023-03-29T04:39:21.208Z,11.70
2023-03-29T04:40:21.244Z,12.90
2023-03-29T04:41:21.221Z,12.40
2023-03-29T04:42:21.304Z,12.60
2023-03-29T04:43:21.190Z,14.40
2023-03-29T04:44:21.262Z,13.00
2023-03-29T04:45:21.218Z,14.00
2023-03-29T04:46:21.228Z,11.60
2023-03-29T04:47:21.172Z,12.10
2023-03-29T04:48:21.167Z,16.10
2023-03-29T04:49:21.205Z,14.60
2023-03-29T04:50:21.264Z,13.40
2023-03-29T04:51:21.148Z,15.00
2023-03-29T04:52:23.183Z,15.20
2023-03-29T04:53:21.146Z,13.40
2023-03-29T04:54:21.145Z,16.90
2023-03-29T04:55:21.177Z,18.40
2023-03-29T04:56:21.108Z,18.40
2023-03-29T04:57:21.150Z,18.00
2023-03-29T04:58:23.646Z,14.60
2023-03-29T04:59:22.093Z,15.20
2023-03-29T05:00:21.128Z,16.40
2023-03-29T05:01:21.110Z,19.90
2023-03-29T05:02:21.081Z,16.70
2023-03-29T05:03:21.931Z,12.50
2023-03-29T05:04:22.043Z,12.20
2023-03-29T05:05:21.056Z,14.00
2023-03-29T05:06:21.043Z,12.20
2023-03-29T05:07:21.013Z,13.30
2023-03-29T05:08:21.030Z,13.20
2023-03-29T05:09:21.014Z,16.20
2023-03-29T05:10:21.009Z,13.30
2023-03-29T05:11:21.023Z,15.60
2023-03-29T05:12:21.004Z,15.60
2023-03-29T05:13:20.968Z,13.60
2023-03-29T05:14:20.988Z,12.20
2023-03-29T05:15:20.972Z,13.40
2023-03-29T05:16:21.075Z,12.40
2023-03-29T05:17:21.004Z,13.20
2023-03-29T05:18:20.983Z,12.30
2023-03-29T05:19:20.964Z,12.30
2023-03-29T05:20:21.009Z,13.10
2023-03-29T05:21:20.986Z,13.10
2023-03-29T05:22:20.966Z,12.10
2023-03-29T05:23:20.957Z,12.20
2023-03-29T05:24:20.930Z,12.10
2023-03-29T05:25:20.886Z,13.50
2023-03-29T05:26:21.014Z,12.80
2023-03-29T05:27:20.941Z,15.90
2023-03-29T05:28:20.882Z,17.20
2023-03-29T05:29:20.954Z,14.90
2023-03-29T05:30:20.899Z,17.00
2023-03-29T05:31:20.936Z,14.60
2023-03-29T05:32:20.946Z,15.10
2023-03-29T05:33:20.884Z,13.80
2023-03-29T05:34:20.864Z,16.50
2023-03-29T05:35:20.876Z,14.30
2023-03-29T05:36:20.844Z,13.80
2023-03-29T05:37:20.866Z,16.40
2023-03-29T05:38:20.840Z,14.50
2023-03-29T05:39:20.867Z,15.70
2023-03-29T05:40:20.883Z,13.40
2023-03-29T05:41:20.854Z,13.20
2023-03-29T05:42:20.804Z,14.60
2023-03-29T05:43:20.801Z,13.60
2023-03-29T05:44:20.805Z,14.80
2023-03-29T05:45:20.830Z,13.50
2023-03-29T05:46:20.778Z,14.60
2023-03-29T05:47:20.784Z,15.20
2023-03-29T05:48:20.772Z,13.10
2023-03-29T05:49:20.750Z,14.00
2023-03-29T05:50:20.782Z,13.70
2023-03-29T05:51:20.790Z,15.90
2023-03-29T05:52:20.742Z,14.90
2023-03-29T05:53:20.712Z,13.90
2023-03-29T05:54:20.761Z,12.70
2023-03-29T05:55:20.789Z,12.20
2023-03-29T05:56:20.744Z,14.10
2023-03-29T05:57:20.825Z,15.30
2023-03-29T05:58:20.737Z,14.00
2023-03-29T05:59:20.745Z,14.30
2023-03-29T06:00:20.677Z,15.20
2023-03-29T06:01:20.704Z,13.60
2023-03-29T06:02:20.790Z,14.30
2023-03-29T06:03:21.860Z,12.60
2023-03-29T06:04:21.772Z,14.00
2023-03-29T06:05:20.632Z,13.80
2023-03-29T06:06:20.691Z,12.70
2023-03-29T06:07:20.663Z,16.90
2023-03-29T06:08:20.633Z,12.80
2023-03-29T06:09:20.636Z,15.50
2023-03-29T06:10:20.610Z,13.90
2023-03-29T06:11:20.677Z,13.20
2023-03-29T06:12:20.630Z,13.00
2023-03-29T06:13:20.581Z,12.70
2023-03-29T06:14:20.580Z,13.70
2023-03-29T06:15:20.650Z,16.60
2023-03-29T06:16:20.694Z,13.60
2023-03-29T06:17:20.812Z,13.30
2023-03-29T06:18:20.615Z,15.30
2023-03-29T06:19:20.564Z,20.40
2023-03-29T06:20:20.629Z,18.10
2023-03-29T06:21:20.868Z,13.60
2023-03-29T06:22:20.561Z,12.90
2023-03-29T06:23:20.532Z,12.30
2023-03-29T06:24:21.541Z,15.80
2023-03-29T06:25:20.586Z,13.00
2023-03-29T06:26:20.563Z,11.00
2023-03-29T06:27:20.528Z,11.80
2023-03-29T06:28:20.527Z,11.70
2023-03-29T06:29:20.492Z,13.30
2023-03-29T06:30:20.524Z,12.50
2023-03-29T06:31:20.677Z,11.40
2023-03-29T06:32:20.495Z,13.10
2023-03-29T06:33:20.537Z,12.90
2023-03-29T06:34:20.482Z,13.30
2023-03-29T06:35:20.522Z,11.20
2023-03-29T06:36:20.609Z,10.10
2023-03-29T06:37:20.517Z,9.60
2023-03-29T06:38:20.495Z,11.10
2023-03-29T06:39:20.525Z,13.00
2023-03-29T06:40:20.461Z,12.90
2023-03-29T06:41:20.463Z,10.80
2023-03-29T06:42:21.765Z,18.10
2023-03-29T06:43:21.457Z,13.90
2023-03-29T06:44:20.486Z,10.20
2023-03-29T06:45:23.220Z,12.70
2023-03-29T06:46:21.439Z,11.00
2023-03-29T06:47:20.456Z,12.70
2023-03-29T06:48:20.430Z,12.90
2023-03-29T06:49:20.379Z,14.70
2023-03-29T06:50:20.398Z,17.20
2023-03-29T06:51:22.657Z,11.20
2023-03-29T06:52:21.426Z,9.00
2023-03-29T06:53:20.441Z,10.30
2023-03-29T06:54:20.431Z,11.10
2023-03-29T06:55:20.434Z,11.40
2023-03-29T06:56:20.401Z,9.30
2023-03-29T06:57:20.346Z,11.10
2023-03-29T06:58:20.376Z,11.10
2023-03-29T06:59:20.353Z,10.70
2023-03-29T07:00:20.320Z,9.80
2023-03-29T07:01:20.356Z,10.40
2023-03-29T07:02:20.315Z,12.10
2023-03-29T07:03:20.384Z,13.00
2023-03-29T07:04:20.439Z,9.80
2023-03-29T07:05:20.291Z,11.60
2023-03-29T07:06:20.374Z,11.50
2023-03-29T07:07:20.692Z,11.40
2023-03-29T07:08:20.303Z,10.00
2023-03-29T07:09:20.334Z,10.80
2023-03-29T07:10:20.262Z,9.30
2023-03-29T07:11:20.260Z,12.50
2023-03-29T07:12:20.268Z,12.40
2023-03-29T07:13:20.265Z,12.10
2023-03-29T07:14:20.276Z,9.90
2023-03-29T07:15:20.243Z,8.80
2023-03-29T07:16:20.317Z,11.50
2023-03-29T07:17:20.232Z,14.70
2023-03-29T07:18:20.392Z,14.50
2023-03-29T07:19:20.257Z,14.60
2023-03-29T07:20:20.216Z,12.00
2023-03-29T07:21:20.240Z,10.60
2023-03-29T07:22:20.216Z,9.20
2023-03-29T07:23:20.199Z,9.40
2023-03-29T07:24:20.242Z,10.40
2023-03-29T07:25:20.192Z,11.70
2023-03-29T07:26:29.014Z,10.70
2023-03-29T07:27:21.194Z,11.30
2023-03-29T07:28:20.178Z,17.40
2023-03-29T07:29:20.345Z,20.80
2023-03-29T07:30:20.162Z,18.40
2023-03-29T07:31:20.162Z,19.00
2023-03-29T07:32:20.224Z,16.70
2023-03-29T07:33:20.294Z,14.00
2023-03-29T07:34:20.166Z,9.80
2023-03-29T07:35:20.112Z,8.70
2023-03-29T07:36:20.166Z,12.30
2023-03-29T07:37:20.102Z,9.00
2023-03-29T07:38:20.114Z,9.80
2023-03-29T07:39:20.117Z,9.50
2023-03-29T07:40:20.121Z,12.30
2023-03-29T07:41:20.086Z,10.70
2023-03-29T07:42:20.144Z,13.00
2023-03-29T07:43:20.110Z,10.30
2023-03-29T07:44:20.268Z,9.60
2023-03-29T07:45:20.140Z,9.90
2023-03-29T07:46:21.081Z,10.70
2023-03-29T07:47:20.039Z,9.60
2023-03-29T07:48:20.071Z,8.30
2023-03-29T07:49:21.675Z,9.30
2023-03-29T07:50:21.166Z,8.00
2023-03-29T07:51:20.003Z,8.10
2023-03-29T07:52:20.034Z,8.60
2023-03-29T07:53:20.019Z,7.80
2023-03-29T07:54:20.008Z,8.00
2023-03-29T07:55:20.035Z,8.40
2023-03-29T07:56:20.034Z,10.90
2023-03-29T07:57:20.022Z,12.30
2023-03-29T07:58:19.977Z,14.90
2023-03-29T07:59:19.948Z,8.40
2023-03-29T08:00:20.069Z,6.90
2023-03-29T08:01:20.188Z,8.00
2023-03-29T08:02:19.956Z,10.70
2023-03-29T08:03:20.049Z,7.40
2023-03-29T08:04:20.030Z,7.60
2023-03-29T08:05:29.239Z,12.80
2023-03-29T08:06:21.972Z,9.50
2023-03-29T08:07:19.986Z,13.90
2023-03-29T08:08:19.945Z,12.70
2023-03-29T08:09:19.917Z,30.10
2023-03-29T08:10:19.977Z,13.60
2023-03-29T08:11:20.036Z,8.20
2023-03-29T08:12:19.901Z,11.30
2023-03-29T08:13:19.894Z,8.60
2023-03-29T08:14:19.890Z,9.30
2023-03-29T08:15:19.925Z,16.80
2023-03-29T08:16:19.939Z,8.90
2023-03-29T08:17:19.894Z,11.70
2023-03-29T08:18:19.860Z,11.10
2023-03-29T08:19:19.944Z,7.20
2023-03-29T08:20:19.841Z,12.90
2023-03-29T08:21:19.841Z,7.70
2023-03-29T08:22:19.885Z,8.20
2023-03-29T08:23:19.867Z,9.20
2023-03-29T08:24:21.005Z,13.00
2023-03-29T08:25:20.845Z,23.80
2023-03-29T08:26:19.849Z,10.90
2023-03-29T08:27:19.813Z,13.70
2023-03-29T08:28:19.850Z,9.60
2023-03-29T08:29:19.819Z,8.00
2023-03-29T08:30:19.759Z,9.90
2023-03-29T08:31:19.798Z,7.00
2023-03-29T08:32:19.800Z,12.20
2023-03-29T08:33:19.956Z,10.90
2023-03-29T08:34:19.766Z,8.90
2023-03-29T08:35:19.787Z,10.80
2023-03-29T08:36:19.828Z,5.90
2023-03-29T08:37:19.832Z,9.00
2023-03-29T08:38:19.763Z,6.50
2023-03-29T08:39:19.769Z,6.60
2023-03-29T08:40:19.784Z,9.30
2023-03-29T08:41:19.724Z,6.50
2023-03-29T08:42:19.677Z,8.60
2023-03-29T08:43:19.724Z,7.80
2023-03-29T08:44:19.686Z,7.50
2023-03-29T08:45:19.670Z,12.20
2023-03-29T08:46:19.713Z,8.00
2023-03-29T08:47:19.640Z,9.70
2023-03-29T08:48:19.684Z,9.20
2023-03-29T08:49:19.737Z,7.00
2023-03-29T08:50:19.998Z,6.50
2023-03-29T08:51:19.629Z,8.10
2023-03-29T08:52:19.667Z,6.20
2023-03-29T08:53:19.646Z,6.60
2023-03-29T08:54:19.610Z,6.80
2023-03-29T08:55:19.629Z,6.30
2023-03-29T08:56:19.583Z,5.20
2023-03-29T08:57:19.711Z,7.00
2023-03-29T08:58:19.632Z,7.50
2023-03-29T08:59:19.596Z,8.30
2023-03-29T09:00:19.630Z,6.70
2023-03-29T09:01:19.595Z,7.80
2023-03-29T09:02:19.575Z,6.90
2023-03-29T09:03:19.639Z,7.40
2023-03-29T09:04:19.667Z,7.10
2023-03-29T09:05:19.658Z,5.90
2023-03-29T09:06:19.559Z,6.60
2023-03-29T09:07:19.573Z,8.50
2023-03-29T09:08:19.502Z,6.10
2023-03-29T09:09:19.491Z,6.30
2023-03-29T09:10:19.521Z,5.20
2023-03-29T09:11:19.499Z,5.50
2023-03-29T09:12:19.512Z,6.50
2023-03-29T09:13:19.538Z,5.40
2023-03-29T09:14:19.525Z,6.10
2023-03-29T09:15:19.525Z,6.50
2023-03-29T09:16:19.503Z,7.30
2023-03-29T09:17:19.490Z,6.50
2023-03-29T09:18:19.502Z,5.40
2023-03-29T09:19:19.468Z,7.50
2023-03-29T09:20:20.439Z,6.30
2023-03-29T09:21:19.425Z,10.20
2023-03-29T09:22:19.446Z,9.40
2023-03-29T09:23:19.493Z,11.70
2023-03-29T09:24:19.383Z,13.30
2023-03-29T09:25:19.381Z,11.80
2023-03-29T09:26:19.497Z,8.00
2023-03-29T09:27:19.376Z,6.60
2023-03-29T09:28:19.378Z,8.00
2023-03-29T09:29:19.362Z,8.60
2023-03-29T09:30:19.387Z,9.80
2023-03-29T09:31:19.406Z,6.00
2023-03-29T09:32:19.383Z,6.20
2023-03-29T09:33:19.344Z,7.20
2023-03-29T09:34:19.405Z,6.10
2023-03-29T09:35:52.827Z,6.00
2023-03-29T09:36:51.821Z,5.20
2023-03-29T09:37:53.831Z,6.70
2023-03-29T09:38:19.333Z,5.70
2023-03-29T09:39:52.910Z,6.40
2023-03-29T09:40:19.294Z,6.00
2023-03-29T09:41:52.743Z,7.60
2023-03-29T09:42:52.729Z,8.70
2023-03-29T09:43:55.408Z,5.10
2023-03-29T09:44:30.260Z,6.60
2023-03-29T09:45:21.268Z,8.60
2023-03-29T09:46:19.432Z,5.30
2023-03-29T09:47:19.255Z,7.50
2023-03-29T09:48:19.285Z,5.40
2023-03-29T09:49:19.241Z,6.10
2023-03-29T09:50:30.305Z,5.60
2023-03-29T09:51:21.210Z,6.80
2023-03-29T09:52:19.218Z,4.80
2023-03-29T09:53:19.226Z,4.70
2023-03-29T09:54:19.222Z,6.30
2023-03-29T09:55:19.216Z,5.50
2023-03-29T09:56:19.184Z,5.50
2023-03-29T09:57:19.252Z,4.60
2023-03-29T09:58:19.200Z,5.10
2023-03-29T09:59:19.280Z,5.70
2023-03-29T10:00:19.180Z,6.80
2023-03-29T10:01:19.374Z,5.10
2023-03-29T10:02:19.175Z,5.00
2023-03-29T10:03:19.159Z,6.70
2023-03-29T10:04:19.206Z,6.70
2023-03-29T10:05:19.833Z,8.60
2023-03-29T10:06:19.149Z,5.40
2023-03-29T10:07:19.177Z,4.80
2023-03-29T10:08:19.885Z,7.50
2023-03-29T10:09:20.115Z,5.70
2023-03-29T10:10:20.157Z,5.50
2023-03-29T10:11:19.197Z,7.30
2023-03-29T10:12:19.097Z,5.50
2023-03-29T10:13:19.078Z,8.10
2023-03-29T10:14:19.068Z,5.60
2023-03-29T10:15:29.146Z,8.00
2023-03-29T10:16:21.168Z,6.40
2023-03-29T10:17:19.094Z,6.80
2023-03-29T10:18:19.084Z,7.70
2023-03-29T10:19:19.090Z,6.10
2023-03-29T10:20:19.032Z,8.60
2023-03-29T10:21:19.054Z,5.70
2023-03-29T10:22:19.057Z,6.60
2023-03-29T10:23:19.061Z,7.20
2023-03-29T10:24:19.012Z,6.20
2023-03-29T10:25:19.018Z,6.30
2023-03-29T10:26:19.015Z,5.90
2023-03-29T10:27:19.019Z,7.30
2023-03-29T10:28:18.965Z,5.40
2023-03-29T10:29:18.985Z,6.90
2023-03-29T10:30:18.985Z,6.90
2023-03-29T10:31:18.991Z,5.80
2023-03-29T10:32:18.968Z,7.50
2023-03-29T10:33:18.956Z,6.50
2023-03-29T10:34:18.999Z,7.50
2023-03-29T10:35:18.935Z,10.10
2023-03-29T10:36:18.966Z,8.20
2023-03-29T10:37:18.959Z,13.60
2023-03-29T10:38:18.931Z,6.20
2023-03-29T10:39:18.968Z,5.40
2023-03-29T10:40:18.953Z,6.80
2023-03-29T10:41:18.912Z,7.00
2023-03-29T10:42:18.944Z,6.70
2023-03-29T10:43:18.937Z,7.10
2023-03-29T10:44:18.911Z,7.50
2023-03-29T10:45:18.911Z,8.50
2023-03-29T10:46:18.924Z,8.60
2023-03-29T10:47:18.914Z,6.00
2023-03-29T10:48:18.896Z,9.10
2023-03-29T10:49:18.870Z,8.50
2023-03-29T10:50:18.902Z,8.70
2023-03-29T10:51:18.868Z,6.20
2023-03-29T10:52:18.862Z,5.50
2023-03-29T10:53:18.833Z,8.00
2023-03-29T10:54:18.852Z,8.60
2023-03-29T10:55:18.835Z,5.60
2023-03-29T10:56:18.841Z,8.90
2023-03-29T10:57:20.971Z,6.20
2023-03-29T10:58:18.842Z,6.10
2023-03-29T10:59:18.856Z,7.70
2023-03-29T11:00:18.948Z,7.60
2023-03-29T11:01:18.904Z,5.10
2023-03-29T11:02:18.835Z,5.40
2023-03-29T11:03:21.014Z,9.10
2023-03-29T11:04:19.741Z,6.10
2023-03-29T11:05:18.779Z,7.40
2023-03-29T11:06:18.759Z,7.20
2023-03-29T11:07:18.745Z,5.70
2023-03-29T11:08:18.731Z,6.50
2023-03-29T11:09:19.749Z,8.00
2023-03-29T11:10:18.749Z,6.50
2023-03-29T11:11:18.742Z,6.30
2023-03-29T11:12:18.729Z,8.50
2023-03-29T11:13:18.736Z,6.10
2023-03-29T11:14:18.729Z,7.30
2023-03-29T11:15:18.689Z,5.90
2023-03-29T11:16:18.797Z,6.90
2023-03-29T11:17:18.685Z,7.80
2023-03-29T11:18:18.702Z,7.00
2023-03-29T11:19:18.679Z,7.10
2023-03-29T11:20:18.667Z,10.60
2023-03-29T11:21:18.713Z,6.30
2023-03-29T11:22:18.652Z,9.30
2023-03-29T11:23:19.435Z,5.40
2023-03-29T11:24:18.666Z,8.20
2023-03-29T11:25:18.681Z,6.90
2023-03-29T11:26:18.629Z,5.60
2023-03-29T11:27:18.606Z,7.80
2023-03-29T11:28:18.642Z,9.20
2023-03-29T11:29:18.796Z,7.00
2023-03-29T11:30:18.641Z,8.30
2023-03-29T11:31:18.685Z,6.60
2023-03-29T11:32:18.582Z,7.80
2023-03-29T11:33:18.565Z,8.40
2023-03-29T11:34:18.563Z,7.30
2023-03-29T11:35:18.615Z,7.60
2023-03-29T11:36:19.439Z,6.70
2023-03-29T11:37:18.535Z,7.70
2023-03-29T11:38:18.619Z,6.90
2023-03-29T11:39:18.582Z,6.00
2023-03-29T11:40:18.525Z,8.50
2023-03-29T11:41:18.550Z,6.20
2023-03-29T11:42:18.526Z,7.10
2023-03-29T11:43:18.514Z,5.80
2023-03-29T11:44:18.527Z,7.90
2023-03-29T11:45:18.601Z,9.30
2023-03-29T11:46:19.957Z,8.80
2023-03-29T11:47:18.585Z,10.80
2023-03-29T11:48:18.480Z,5.60
2023-03-29T11:49:18.566Z,6.70
2023-03-29T11:50:18.480Z,8.40
2023-03-29T11:51:18.517Z,5.90
2023-03-29T11:52:18.480Z,8.80
2023-03-29T11:53:18.444Z,7.90
2023-03-29T11:54:18.448Z,7.80
2023-03-29T11:55:18.494Z,7.00
2023-03-29T11:56:18.434Z,7.70
2023-03-29T11:57:18.451Z,7.40
2023-03-29T11:58:18.412Z,9.20
2023-03-29T11:59:18.451Z,9.70
2023-03-29T12:00:18.430Z,9.50
2023-03-29T12:01:18.419Z,8.40
2023-03-29T12:02:18.421Z,9.90
2023-03-29T12:03:18.437Z,10.30
2023-03-29T12:04:18.386Z,10.80
2023-03-29T12:05:18.398Z,8.10
2023-03-29T12:06:18.364Z,8.00
2023-03-29T12:07:18.448Z,8.90
2023-03-29T12:08:18.415Z,8.80
2023-03-29T12:09:18.366Z,8.70
2023-03-29T12:10:18.330Z,7.00
2023-03-29T12:11:18.454Z,8.40
2023-03-29T12:12:19.264Z,7.60
2023-03-29T12:13:18.715Z,8.00
2023-03-29T12:14:18.304Z,8.60
2023-03-29T12:15:18.304Z,7.20
2023-03-29T12:16:18.310Z,9.10
2023-03-29T12:17:18.324Z,8.60
2023-03-29T12:18:18.907Z,8.00
2023-03-29T12:19:18.291Z,9.20
2023-03-29T12:20:18.293Z,7.80
2023-03-29T12:21:18.269Z,6.90
2023-03-29T12:22:18.232Z,7.80
2023-03-29T12:23:18.246Z,8.20
2023-03-29T12:24:18.286Z,10.50
2023-03-29T12:25:19.291Z,8.20
2023-03-29T12:26:19.212Z,8.10
2023-03-29T12:27:18.281Z,7.90
2023-03-29T12:28:18.221Z,7.80
2023-03-29T12:29:18.210Z,6.40
2023-03-29T12:30:18.187Z,7.80
2023-03-29T12:31:18.209Z,6.00
2023-03-29T12:32:18.220Z,8.40
2023-03-29T12:33:18.283Z,7.60
2023-03-29T12:34:18.174Z,7.60
2023-03-29T12:35:18.251Z,8.20
2023-03-29T12:36:18.234Z,8.50
2023-03-29T12:37:18.212Z,7.80
2023-03-29T12:38:18.160Z,9.50
2023-03-29T12:39:18.147Z,7.90
2023-03-29T12:40:18.208Z,6.50
2023-03-29T12:41:18.122Z,6.90
2023-03-29T12:42:18.182Z,5.40
2023-03-29T12:43:18.143Z,7.70
2023-03-29T12:44:18.106Z,7.50
2023-03-29T12:45:18.131Z,7.10
2023-03-29T12:46:18.213Z,6.10
2023-03-29T12:47:18.091Z,6.10
2023-03-29T12:48:18.112Z,7.60
2023-03-29T12:49:20.479Z,8.10
2023-03-29T12:50:19.117Z,5.90
2023-03-29T12:51:18.070Z,7.90
2023-03-29T12:52:18.055Z,6.60
2023-03-29T12:53:18.111Z,6.50
2023-03-29T12:54:18.073Z,7.10
2023-03-29T12:55:18.082Z,6.10
2023-03-29T12:56:18.075Z,6.70
2023-03-29T12:57:18.054Z,6.10
2023-03-29T12:58:18.045Z,6.90
2023-03-29T12:59:18.085Z,11.20
2023-03-29T13:00:18.074Z,4.60
2023-03-29T13:01:18.129Z,5.20
2023-03-29T13:02:18.087Z,4.60